sensor_id;sensor_type;location;lat;lon;timestamp;pressure;altitude;pressure_sealevel;temperature;humidity
22311;BME280;11323;49.610;11.016;2023-02-14T00:04:24;100127.91;;;12.19;nan
22311;BME280;11323;49.610;11.016;2023-02-14T00:09:24;100129.72;;;12.19;nan
22311;BME280;11323;49.610;11.016;2023-02-14T00:14:25;100133.47;;;12.15;nan
22311;BME280;11323;49.610;11.016;2023-02-14T00:19:43;100134.31;;;12.15;nan
22311;BME280;11323;49.610;11.016;2023-02-14T00:24:44;100127.63;;;12.11;nan
22311;BME280;11323;49.610;11.016;2023-02-14T00:29:44;100123.34;;;12.10;nan
22311;BME280;11323;49.610;11.016;2023-02-14T00:34:45;100119.25;;;12.06;nan
22311;BME280;11323;49.610;11.016;2023-02-14T00:39:45;100129.94;;;12.03;nan
22311;BME280;11323;49.610;11.016;2023-02-14T00:44:45;100127.50;;;12.00;nan
22311;BME280;11323;49.610;11.016;2023-02-14T00:49:46;100130.31;;;11.97;nan
22311;BME280;11323;49.610;11.016;2023-02-14T00:54:46;100126.25;;;11.93;nan
22311;BME280;11323;49.610;11.016;2023-02-14T00:59:47;100128.63;;;11.96;nan
22311;BME280;11323;49.610;11.016;2023-02-14T01:04:47;100135.94;;;11.90;nan
22311;BME280;11323;49.610;11.016;2023-02-14T01:09:48;100135.94;;;11.90;nan
22311;BME280;11323;49.610;11.016;2023-02-14T01:14:48;100132.41;;;11.92;nan
22311;BME280;11323;49.610;11.016;2023-02-14T01:19:53;100128.84;;;11.93;nan
22311;BME280;11323;49.610;11.016;2023-02-14T01:24:53;100132.50;;;11.90;nan
22311;BME280;11323;49.610;11.016;2023-02-14T01:29:55;100126.44;;;11.89;nan
22311;BME280;11323;49.610;11.016;2023-02-14T01:34:55;100130.00;;;11.88;nan
22311;BME280;11323;49.610;11.016;2023-02-14T01:39:56;100137.19;;;11.85;nan
22311;BME280;11323;49.610;11.016;2023-02-14T01:45:07;100133.00;;;11.82;nan
22311;BME280;11323;49.610;11.016;2023-02-14T01:50:25;100124.22;;;11.83;nan
22311;BME280;11323;49.610;11.016;2023-02-14T01:55:31;100115.69;;;11.81;nan
22311;BME280;11323;49.610;11.016;2023-02-14T02:00:33;100119.22;;;11.80;nan
22311;BME280;11323;49.610;11.016;2023-02-14T02:06:01;100112.53;;;11.76;nan
22311;BME280;11323;49.610;11.016;2023-02-14T02:11:02;100117.75;;;11.76;nan
22311;BME280;11323;49.610;11.016;2023-02-14T02:16:17;100115.88;;;11.78;nan
22311;BME280;11323;49.610;11.016;2023-02-14T02:21:31;100109.09;;;11.76;nan
22311;BME280;11323;49.610;11.016;2023-02-14T02:27:08;100110.66;;;11.78;nan
22311;BME280;11323;49.610;11.016;2023-02-14T02:43:29;100108.56;;;11.70;nan
22311;BME280;11323;49.610;11.016;2023-02-14T02:48:50;100106.13;;;11.67;nan
22311;BME280;11323;49.610;11.016;2023-02-14T02:54:05;100092.66;;;11.61;nan
22311;BME280;11323;49.610;11.016;2023-02-14T02:59:12;100107.50;;;11.73;nan
22311;BME280;11323;49.610;11.016;2023-02-14T03:04:21;100111.28;;;11.69;nan
22311;BME280;11323;49.610;11.016;2023-02-14T03:14:48;100114.09;;;11.66;nan
22311;BME280;11323;49.610;11.016;2023-02-14T03:19:51;100114.19;;;11.64;nan
22311;BME280;11323;49.610;11.016;2023-02-14T03:25:27;100116.06;;;11.62;nan
22311;BME280;11323;49.610;11.016;2023-02-14T03:30:39;100123.16;;;11.60;nan
22311;BME280;11323;49.610;11.016;2023-02-14T03:36:07;100110.22;;;11.58;nan
22311;BME280;11323;49.610;11.016;2023-02-14T03:41:19;100107.06;;;11.53;nan
22311;BME280;11323;49.610;11.016;2023-02-14T03:51:28;100114.91;;;11.53;nan
22311;BME280;11323;49.610;11.016;2023-02-14T03:56:40;100120.00;;;11.55;nan
22311;BME280;11323;49.610;11.016;2023-02-14T04:06:45;100119.19;;;11.54;nan
22311;BME280;11323;49.610;11.016;2023-02-14T04:11:46;100105.81;;;11.46;nan
22311;BME280;11323;49.610;11.016;2023-02-14T04:16:49;100111.66;;;11.50;nan
22311;BME280;11323;49.610;11.016;2023-02-14T04:22:08;100114.91;;;11.53;nan
22311;BME280;11323;49.610;11.016;2023-02-14T04:27:09;100117.50;;;11.53;nan
22311;BME280;11323;49.610;11.016;2023-02-14T04:32:12;100109.97;;;11.49;nan
22311;BME280;11323;49.610;11.016;2023-02-14T04:37:15;100108.94;;;11.51;nan
22311;BME280;11323;49.610;11.016;2023-02-14T04:42:15;100107.69;;;11.44;nan
22311;BME280;11323;49.610;11.016;2023-02-14T04:47:16;100102.47;;;11.44;nan
22311;BME280;11323;49.610;11.016;2023-02-14T04:52:16;100093.69;;;11.45;nan
22311;BME280;11323;49.610;11.016;2023-02-14T04:57:17;100074.88;;;11.40;nan
22311;BME280;11323;49.610;11.016;2023-02-14T05:02:17;100085.13;;;11.43;nan
22311;BME280;11323;49.610;11.016;2023-02-14T05:07:17;100080.72;;;11.43;nan
22311;BME280;11323;49.610;11.016;2023-02-14T05:12:18;100076.72;;;11.38;nan
22311;BME280;11323;49.610;11.016;2023-02-14T05:17:19;100087.09;;;11.39;nan
22311;BME280;11323;49.610;11.016;2023-02-14T05:22:19;100089.72;;;11.39;nan
22311;BME280;11323;49.610;11.016;2023-02-14T05:27:19;100090.66;;;11.38;nan
22311;BME280;11323;49.610;11.016;2023-02-14T05:32:20;100080.50;;;11.34;nan
22311;BME280;11323;49.610;11.016;2023-02-14T05:37:20;100080.41;;;11.35;nan
22311;BME280;11323;49.610;11.016;2023-02-14T05:42:20;100075.38;;;11.32;nan
22311;BME280;11323;49.610;11.016;2023-02-14T05:47:21;100068.28;;;11.34;nan
22311;BME280;11323;49.610;11.016;2023-02-14T05:52:21;100067.16;;;11.38;nan
22311;BME280;11323;49.610;11.016;2023-02-14T05:57:21;100067.25;;;11.37;nan
22311;BME280;11323;49.610;11.016;2023-02-14T06:02:22;100064.66;;;11.37;nan
22311;BME280;11323;49.610;11.016;2023-02-14T06:07:22;100080.50;;;11.34;nan
22311;BME280;11323;49.610;11.016;2023-02-14T06:12:23;100061.81;;;11.27;nan
22311;BME280;11323;49.610;11.016;2023-02-14T06:17:23;100070.25;;;11.31;nan
22311;BME280;11323;49.610;11.016;2023-02-14T06:22:24;100066.91;;;11.28;nan
22311;BME280;11323;49.610;11.016;2023-02-14T06:27:28;100071.31;;;11.28;nan
22311;BME280;11323;49.610;11.016;2023-02-14T06:32:29;100072.34;;;11.25;nan
22311;BME280;11323;49.610;11.016;2023-02-14T06:37:30;100086.34;;;11.24;nan
22311;BME280;11323;49.610;11.016;2023-02-14T06:42:31;100084.03;;;11.20;nan
22311;BME280;11323;49.610;11.016;2023-02-14T06:47:31;100081.69;;;11.15;nan
22311;BME280;11323;49.610;11.016;2023-02-14T06:52:32;100093.44;;;11.22;nan
22311;BME280;11323;49.610;11.016;2023-02-14T06:57:32;100091.94;;;11.18;nan
22311;BME280;11323;49.610;11.016;2023-02-14T07:02:33;100094.16;;;11.24;nan
22311;BME280;11323;49.610;11.016;2023-02-14T07:07:33;100073.22;;;11.11;nan
22311;BME280;11323;49.610;11.016;2023-02-14T07:12:33;100093.44;;;11.22;nan
22311;BME280;11323;49.610;11.016;2023-02-14T07:17:34;100085.59;;;11.22;nan
22311;BME280;11323;49.610;11.016;2023-02-14T07:22:35;100077.22;;;11.17;nan
22311;BME280;11323;49.610;11.016;2023-02-14T07:27:36;100089.88;;;11.23;nan
22311;BME280;11323;49.610;11.016;2023-02-14T07:32:37;100098.66;;;11.22;nan
22311;BME280;11323;49.610;11.016;2023-02-14T07:37:38;100091.88;;;11.33;nan
22311;BME280;11323;49.610;11.016;2023-02-14T07:42:38;100091.78;;;11.34;nan
22311;BME280;11323;49.610;11.016;2023-02-14T07:47:39;100091.59;;;11.50;nan
22311;BME280;11323;49.610;11.016;2023-02-14T07:52:39;100078.03;;;11.71;nan
22311;BME280;11323;49.610;11.016;2023-02-14T07:57:39;100089.13;;;12.00;nan
22311;BME280;11323;49.610;11.016;2023-02-14T08:02:40;100092.19;;;12.20;nan
22311;BME280;11323;49.610;11.016;2023-02-14T08:07:40;100079.75;;;11.98;nan
22311;BME280;11323;49.610;11.016;2023-02-14T08:12:42;100077.72;;;11.63;nan
22311;BME280;11323;49.610;11.016;2023-02-14T08:18:00;100072.53;;;11.76;nan
22311;BME280;11323;49.610;11.016;2023-02-14T08:23:01;100072.75;;;11.98;nan
22311;BME280;11323;49.610;11.016;2023-02-14T08:28:02;100058.00;;;12.10;nan
22311;BME280;11323;49.610;11.016;2023-02-14T08:33:04;100065.94;;;12.09;nan
22311;BME280;11323;49.610;11.016;2023-02-14T08:38:04;100061.75;;;12.06;nan
22311;BME280;11323;49.610;11.016;2023-02-14T08:43:05;100070.25;;;12.10;nan
22311;BME280;11323;49.610;11.016;2023-02-14T08:48:09;100070.25;;;12.10;nan
22311;BME280;11323;49.610;11.016;2023-02-14T08:53:11;100076.50;;;12.07;nan
22311;BME280;11323;49.610;11.016;2023-02-14T08:58:12;100068.88;;;12.04;nan
22311;BME280;11323;49.610;11.016;2023-02-14T09:03:12;100062.19;;;12.00;nan
22311;BME280;11323;49.610;11.016;2023-02-14T09:08:13;100065.53;;;12.02;nan
22311;BME280;11323;49.610;11.016;2023-02-14T09:13:13;100075.16;;;12.14;nan
22311;BME280;11323;49.610;11.016;2023-02-14T09:18:14;100052.31;;;12.16;nan
22311;BME280;11323;49.610;11.016;2023-02-14T09:23:15;100054.00;;;12.17;nan
22311;BME280;11323;49.610;11.016;2023-02-14T09:28:15;100051.91;;;12.23;nan
22311;BME280;11323;49.610;11.016;2023-02-14T09:33:16;100058.31;;;12.56;nan
22311;BME280;11323;49.610;11.016;2023-02-14T09:38:16;100051.63;;;12.51;nan
22311;BME280;11323;49.610;11.016;2023-02-14T09:43:22;100061.94;;;12.66;nan
22311;BME280;11323;49.610;11.016;2023-02-14T09:48:35;100056.09;;;12.62;nan
22311;BME280;11323;49.610;11.016;2023-02-14T09:53:47;100051.31;;;12.80;nan
22311;BME280;11323;49.610;11.016;2023-02-14T09:58:59;100045.31;;;13.03;nan
22311;BME280;11323;49.610;11.016;2023-02-14T10:04:09;100048.56;;;12.82;nan
22311;BME280;11323;49.610;11.016;2023-02-14T10:14:33;100050.00;;;12.62;nan
22311;BME280;11323;49.610;11.016;2023-02-14T10:19:46;100049.31;;;12.60;nan
22311;BME280;11323;49.610;11.016;2023-02-14T10:24:52;100052.63;;;12.62;nan
22311;BME280;11323;49.610;11.016;2023-02-14T10:29:54;100049.50;;;12.57;nan
22311;BME280;11323;49.610;11.016;2023-02-14T10:34:55;100052.63;;;12.62;nan
22311;BME280;11323;49.610;11.016;2023-02-14T10:40:22;100038.59;;;12.63;nan
22311;BME280;11323;49.610;11.016;2023-02-14T10:45:36;100034.81;;;12.67;nan
22311;BME280;11323;49.610;11.016;2023-02-14T10:50:51;100030.19;;;12.95;nan
22311;BME280;11323;49.610;11.016;2023-02-14T10:56:00;100030.25;;;13.18;nan
22311;BME280;11323;49.610;11.016;2023-02-14T11:01:08;100022.41;;;13.18;nan
22311;BME280;11323;49.610;11.016;2023-02-14T11:06:10;100025.53;;;13.23;nan
22311;BME280;11323;49.610;11.016;2023-02-14T11:16:35;100021.50;;;13.30;nan
22311;BME280;11323;49.610;11.016;2023-02-14T11:21:39;100017.69;;;13.34;nan
22311;BME280;11323;49.610;11.016;2023-02-14T11:26:44;100003.66;;;13.35;nan
22311;BME280;11323;49.610;11.016;2023-02-14T11:31:46;100009.31;;;13.42;nan
22311;BME280;11323;49.610;11.016;2023-02-14T11:36:47;100001.09;;;13.47;nan
22311;BME280;11323;49.610;11.016;2023-02-14T11:41:55;99996.59;;;13.60;nan
22311;BME280;11323;49.610;11.016;2023-02-14T11:52:16;99982.28;;;13.75;nan
22311;BME280;11323;49.610;11.016;2023-02-14T11:57:30;99978.00;;;13.86;nan
22311;BME280;11323;49.610;11.016;2023-02-14T12:02:39;99980.38;;;13.66;nan
22311;BME280;11323;49.610;11.016;2023-02-14T12:07:46;99970.84;;;13.54;nan
22311;BME280;11323;49.610;11.016;2023-02-14T12:12:54;99956.44;;;13.48;nan
22311;BME280;11323;49.610;11.016;2023-02-14T12:23:17;99940.81;;;13.35;nan
22311;BME280;11323;49.610;11.016;2023-02-14T12:28:27;99930.09;;;13.38;nan
22311;BME280;11323;49.610;11.016;2023-02-14T12:33:29;99930.59;;;13.55;nan
22311;BME280;11323;49.610;11.016;2023-02-14T12:38:52;99918.00;;;13.60;nan
22311;BME280;11323;49.610;11.016;2023-02-14T12:43:57;99914.41;;;13.61;nan
22311;BME280;11323;49.610;11.016;2023-02-14T12:49:04;99911.06;;;13.82;nan
22311;BME280;11323;49.610;11.016;2023-02-14T13:00:02;99898.41;;;13.87;nan
22311;BME280;11323;49.610;11.016;2023-02-14T13:15:41;99888.28;;;13.94;nan
22311;BME280;11323;49.610;11.016;2023-02-14T13:25:53;99883.59;;;13.97;nan
22311;BME280;11323;49.610;11.016;2023-02-14T13:30:57;99881.94;;;13.96;nan
22311;BME280;11323;49.610;11.016;2023-02-14T13:36:05;99866.97;;;13.87;nan
22311;BME280;11323;49.610;11.016;2023-02-14T13:41:07;99871.16;;;13.89;nan
22311;BME280;11323;49.610;11.016;2023-02-14T13:46:08;99863.88;;;13.93;nan
22311;BME280;11323;49.610;11.016;2023-02-14T13:51:09;99868.22;;;14.04;nan
22311;BME280;11323;49.610;11.016;2023-02-14T14:06:28;99852.47;;;13.83;nan
22311;BME280;11323;49.610;11.016;2023-02-14T14:16:33;99856.41;;;13.77;nan
22311;BME280;11323;49.610;11.016;2023-02-14T14:21:37;99857.38;;;13.65;nan
22311;BME280;11323;49.610;11.016;2023-02-14T14:26:44;99855.13;;;13.60;nan
22311;BME280;11323;49.610;11.016;2023-02-14T14:31:46;99850.94;;;13.57;nan
22311;BME280;11323;49.610;11.016;2023-02-14T14:37:13;99843.72;;;13.50;nan
22311;BME280;11323;49.610;11.016;2023-02-14T14:42:15;99838.69;;;13.47;nan
22311;BME280;11323;49.610;11.016;2023-02-14T14:47:19;99829.88;;;13.59;nan
22311;BME280;11323;49.610;11.016;2023-02-14T14:52:42;99818.69;;;13.57;nan
22311;BME280;11323;49.610;11.016;2023-02-14T14:57:49;99822.94;;;13.69;nan
22311;BME280;11323;49.610;11.016;2023-02-14T15:03:14;99828.88;;;13.83;nan
22311;BME280;11323;49.610;11.016;2023-02-14T15:18:58;99811.88;;;13.98;nan
22311;BME280;11323;49.610;11.016;2023-02-14T15:24:00;99819.13;;;14.06;nan
22311;BME280;11323;49.610;11.016;2023-02-14T15:29:04;99803.97;;;14.10;nan
22311;BME280;11323;49.610;11.016;2023-02-14T15:34:05;99795.34;;;14.19;nan
22311;BME280;11323;49.610;11.016;2023-02-14T15:39:06;99784.91;;;14.08;nan
22311;BME280;11323;49.610;11.016;2023-02-14T15:44:17;99792.78;;;14.08;nan
22311;BME280;11323;49.610;11.016;2023-02-14T15:49:20;99784.22;;;14.05;nan
22311;BME280;11323;49.610;11.016;2023-02-14T15:59:33;99775.69;;;13.92;nan
22311;BME280;11323;49.610;11.016;2023-02-14T16:04:34;99781.06;;;13.90;nan
22311;BME280;11323;49.610;11.016;2023-02-14T16:09:35;99780.69;;;13.95;nan
22311;BME280;11323;49.610;11.016;2023-02-14T16:14:36;99774.22;;;13.99;nan
22311;BME280;11323;49.610;11.016;2023-02-14T16:19:42;99785.75;;;14.08;nan
22311;BME280;11323;49.610;11.016;2023-02-14T16:24:43;99797.97;;;14.19;nan
22311;BME280;11323;49.610;11.016;2023-02-14T16:29:44;99804.53;;;14.13;nan
22311;BME280;11323;49.610;11.016;2023-02-14T16:34:45;99793.09;;;13.93;nan
22311;BME280;11323;49.610;11.016;2023-02-14T16:39:50;99798.56;;;13.90;nan
22311;BME280;11323;49.610;11.016;2023-02-14T16:44:51;99807.44;;;13.78;nan
22311;BME280;11323;49.610;11.016;2023-02-14T16:49:51;99801.97;;;13.69;nan
22311;BME280;11323;49.610;11.016;2023-02-14T16:54:53;99801.50;;;13.64;nan
22311;BME280;11323;49.610;11.016;2023-02-14T16:59:54;99808.19;;;13.57;nan
22311;BME280;11323;49.610;11.016;2023-02-14T17:04:55;99805.06;;;13.63;nan
22311;BME280;11323;49.610;11.016;2023-02-14T17:10:02;99805.78;;;13.65;nan
22311;BME280;11323;49.610;11.016;2023-02-14T17:15:09;99816.25;;;13.77;nan
22311;BME280;11323;49.610;11.016;2023-02-14T17:20:12;99818.16;;;13.74;nan
22311;BME280;11323;49.610;11.016;2023-02-14T17:25:13;99817.34;;;13.63;nan
22311;BME280;11323;49.610;11.016;2023-02-14T17:30:14;99823.41;;;13.63;nan
22311;BME280;11323;49.610;11.016;2023-02-14T17:35:15;99808.69;;;13.62;nan
22311;BME280;11323;49.610;11.016;2023-02-14T17:40:15;99816.16;;;13.67;nan
22311;BME280;11323;49.610;11.016;2023-02-14T17:45:16;99811.41;;;13.61;nan
22311;BME280;11323;49.610;11.016;2023-02-14T17:50:16;99815.09;;;13.58;nan
22311;BME280;11323;49.610;11.016;2023-02-14T17:55:17;99820.19;;;13.71;nan
22311;BME280;11323;49.610;11.016;2023-02-14T18:00:20;99810.03;;;13.78;nan
22311;BME280;11323;49.610;11.016;2023-02-14T18:05:20;99808.00;;;13.81;nan
22311;BME280;11323;49.610;11.016;2023-02-14T18:10:21;99797.41;;;13.83;nan
22311;BME280;11323;49.610;11.016;2023-02-14T18:15:21;99788.00;;;13.80;nan
22311;BME280;11323;49.610;11.016;2023-02-14T18:20:21;99802.19;;;13.78;nan
22311;BME280;11323;49.610;11.016;2023-02-14T18:25:22;99802.91;;;13.80;nan
22311;BME280;11323;49.610;11.016;2023-02-14T18:30:22;99800.41;;;13.78;nan
22311;BME280;11323;49.610;11.016;2023-02-14T18:35:22;99805.97;;;13.85;nan
22311;BME280;11323;49.610;11.016;2023-02-14T18:40:23;99800.56;;;13.98;nan
22311;BME280;11323;49.610;11.016;2023-02-14T18:45:23;99802.31;;;14.09;nan
22311;BME280;11323;49.610;11.016;2023-02-14T18:50:24;99792.81;;;13.96;nan
22311;BME280;11323;49.610;11.016;2023-02-14T18:55:24;99797.41;;;13.83;nan
22311;BME280;11323;49.610;11.016;2023-02-14T19:00:24;99782.94;;;13.67;nan
22311;BME280;11323;49.610;11.016;2023-02-14T19:05:26;99793.41;;;13.67;nan
22311;BME280;11323;49.610;11.016;2023-02-14T19:10:26;99790.22;;;13.64;nan
22311;BME280;11323;49.610;11.016;2023-02-14T19:15:26;99788.06;;;13.57;nan
22311;BME280;11323;49.610;11.016;2023-02-14T19:20:27;99793.81;;;13.51;nan
22311;BME280;11323;49.610;11.016;2023-02-14T19:25:27;99788.19;;;13.56;nan
22311;BME280;11323;49.610;11.016;2023-02-14T19:30:28;99784.50;;;13.58;nan
22311;BME280;11323;49.610;11.016;2023-02-14T19:35:29;99778.19;;;13.61;nan
22311;BME280;11323;49.610;11.016;2023-02-14T19:40:29;99781.25;;;13.66;nan
22311;BME280;11323;49.610;11.016;2023-02-14T19:45:30;99786.50;;;13.66;nan
22311;BME280;11323;49.610;11.016;2023-02-14T19:50:31;99761.28;;;13.54;nan
22311;BME280;11323;49.610;11.016;2023-02-14T19:55:31;99778.53;;;13.68;nan
22311;BME280;11323;49.610;11.016;2023-02-14T20:00:32;99769.63;;;13.59;nan
22311;BME280;11323;49.610;11.016;2023-02-14T20:05:36;99748.31;;;13.52;nan
22311;BME280;11323;49.610;11.016;2023-02-14T20:10:37;99778.88;;;13.63;nan
22311;BME280;11323;49.610;11.016;2023-02-14T20:15:37;99758.56;;;13.55;nan
22311;BME280;11323;49.610;11.016;2023-02-14T20:20:44;99769.38;;;13.62;nan
22311;BME280;11323;49.610;11.016;2023-02-14T20:26:03;99761.88;;;13.57;nan
22311;BME280;11323;49.610;11.016;2023-02-14T20:31:08;99756.06;;;13.54;nan
22311;BME280;11323;49.610;11.016;2023-02-14T20:36:09;99755.81;;;13.57;nan
22311;BME280;11323;49.610;11.016;2023-02-14T20:41:12;99761.06;;;13.57;nan
22311;BME280;11323;49.610;11.016;2023-02-14T20:46:14;99755.22;;;13.53;nan
22311;BME280;11323;49.610;11.016;2023-02-14T20:51:17;99745.88;;;13.28;nan
22311;BME280;11323;49.610;11.016;2023-02-14T20:56:19;99743.63;;;13.01;nan
22311;BME280;11323;49.610;11.016;2023-02-14T21:01:21;99733.16;;;12.89;nan
22311;BME280;11323;49.610;11.016;2023-02-14T21:06:27;99735.91;;;12.76;nan
22311;BME280;11323;49.610;11.016;2023-02-14T21:11:28;99724.97;;;12.60;nan
22311;BME280;11323;49.610;11.016;2023-02-14T21:16:29;99727.69;;;12.58;nan
22311;BME280;11323;49.610;11.016;2023-02-14T21:21:33;99728.75;;;12.56;nan
22311;BME280;11323;49.610;11.016;2023-02-14T21:26:36;99724.03;;;12.49;nan
22311;BME280;11323;49.610;11.016;2023-02-14T21:31:36;99711.63;;;12.40;nan
22311;BME280;11323;49.610;11.016;2023-02-14T21:36:37;99720.31;;;12.41;nan
22311;BME280;11323;49.610;11.016;2023-02-14T21:41:37;99717.09;;;12.37;nan
22311;BME280;11323;49.610;11.016;2023-02-14T21:46:38;99711.59;;;12.29;nan
22311;BME280;11323;49.610;11.016;2023-02-14T21:51:40;99719.56;;;12.27;nan
22311;BME280;11323;49.610;11.016;2023-02-14T21:56:41;99716.47;;;12.22;nan
22311;BME280;11323;49.610;11.016;2023-02-14T22:01:42;99717.31;;;12.23;nan
22311;BME280;11323;49.610;11.016;2023-02-14T22:06:42;99714.09;;;12.19;nan
22311;BME280;11323;49.610;11.016;2023-02-14T22:11:44;99716.34;;;12.12;nan
22311;BME280;11323;49.610;11.016;2023-02-14T22:16:46;99718.09;;;12.12;nan
22311;BME280;11323;49.610;11.016;2023-02-14T22:21:47;99695.63;;;11.98;nan
22311;BME280;11323;49.610;11.016;2023-02-14T22:26:47;99707.00;;;11.97;nan
22311;BME280;11323;49.610;11.016;2023-02-14T22:31:48;99708.78;;;11.96;nan
22311;BME280;11323;49.610;11.016;2023-02-14T22:36:48;99696.53;;;11.97;nan
22311;BME280;11323;49.610;11.016;2023-02-14T22:41:48;99687.16;;;11.94;nan
22311;BME280;11323;49.610;11.016;2023-02-14T22:46:49;99693.91;;;11.85;nan
22311;BME280;11323;49.610;11.016;2023-02-14T22:51:49;99694.97;;;11.83;nan
22311;BME280;11323;49.610;11.016;2023-02-14T22:56:50;99684.75;;;11.80;nan
22311;BME280;11323;49.610;11.016;2023-02-14T23:01:51;99682.97;;;11.80;nan
22311;BME280;11323;49.610;11.016;2023-02-14T23:06:52;99672.03;;;11.75;nan
22311;BME280;11323;49.610;11.016;2023-02-14T23:11:52;99664.19;;;11.75;nan
22311;BME280;11323;49.610;11.016;2023-02-14T23:16:53;99661.56;;;11.75;nan
22311;BME280;11323;49.610;11.016;2023-02-14T23:22:38;99649.22;;;11.66;nan
22311;BME280;11323;49.610;11.016;2023-02-14T23:27:42;99663.09;;;11.66;nan
22311;BME280;11323;49.610;11.016;2023-02-14T23:32:43;99654.16;;;11.57;nan
22311;BME280;11323;49.610;11.016;2023-02-14T23:37:43;99669.59;;;11.61;nan
22311;BME280;11323;49.610;11.016;2023-02-14T23:42:43;99657.50;;;11.59;nan
22311;BME280;11323;49.610;11.016;2023-02-14T23:47:44;99642.16;;;11.55;nan
22311;BME280;11323;49.610;11.016;2023-02-14T23:52:44;99656.06;;;11.55;nan
22311;BME280;11323;49.610;11.016;2023-02-14T23:57:44;99645.63;;;11.55;nan
